Dema, Kentucky
Current Conditions -  °F | °C
As of 3:55 AM on Monday 20 Oct 2014 (Local Time) from KPBX Reporting Station
Clear Clear  
Wind Chill: 43°   Ceiling: Unl
Heat Index: 43°   Visibility: 10mi
Dew Point: 40°   Wind: 3mph
Humidity: 87%   Direction: 170°S
Pressure: 30.07"   Gusts: NA
Location:  37.43°N, 82.8°W
Report Text: KPBX 200755Z AUTO 17003KT 10SM CLR 06/04 A3007 RMK AO2 T00630042
Loading
Personal Weather Stations






























Interactive Weather Map
Tropical Storm Tracking
New forecast layout! Learn more

10-Day Weather Forecast

Advertisements
Track Severe Weather on mobile